sensor_id;sensor_type;location;lat;lon;timestamp;P1;durP1;ratioP1;P2;durP2;ratioP2
74213;SDS011;62576;55.694;37.494;2024-03-08T00:00:47;8.10;;;3.85;;
74213;SDS011;62576;55.694;37.494;2024-03-08T00:03:17;7.28;;;3.45;;
74213;SDS011;62576;55.694;37.494;2024-03-08T00:05:49;8.50;;;3.83;;
74213;SDS011;62576;55.694;37.494;2024-03-08T00:08:19;7.40;;;3.67;;
74213;SDS011;62576;55.694;37.494;2024-03-08T00:10:47;9.32;;;4.50;;
74213;SDS011;62576;55.694;37.494;2024-03-08T00:13:17;8.50;;;4.22;;
74213;SDS011;62576;55.694;37.494;2024-03-08T00:15:49;7.90;;;4.10;;
74213;SDS011;62576;55.694;37.494;2024-03-08T00:18:20;9.13;;;3.20;;
74213;SDS011;62576;55.694;37.494;2024-03-08T00:20:50;8.25;;;3.88;;
74213;SDS011;62576;55.694;37.494;2024-03-08T00:23:20;9.73;;;3.75;;
74213;SDS011;62576;55.694;37.494;2024-03-08T00:25:51;5.68;;;2.83;;
74213;SDS011;62576;55.694;37.494;2024-03-08T00:28:23;6.38;;;2.53;;
74213;SDS011;62576;55.694;37.494;2024-03-08T00:30:54;7.50;;;3.05;;
74213;SDS011;62576;55.694;37.494;2024-03-08T00:33:24;10.00;;;3.58;;
74213;SDS011;62576;55.694;37.494;2024-03-08T00:35:55;8.70;;;4.18;;
74213;SDS011;62576;55.694;37.494;2024-03-08T00:38:26;8.52;;;2.72;;
74213;SDS011;62576;55.694;37.494;2024-03-08T00:40:56;9.05;;;3.78;;
74213;SDS011;62576;55.694;37.494;2024-03-08T00:43:26;4.55;;;2.70;;
74213;SDS011;62576;55.694;37.494;2024-03-08T00:45:57;6.85;;;3.50;;
74213;SDS011;62576;55.694;37.494;2024-03-08T00:48:27;8.18;;;3.35;;
74213;SDS011;62576;55.694;37.494;2024-03-08T00:50:59;7.28;;;3.28;;
74213;SDS011;62576;55.694;37.494;2024-03-08T00:53:30;8.32;;;3.08;;
74213;SDS011;62576;55.694;37.494;2024-03-08T00:56:00;5.72;;;2.65;;
74213;SDS011;62576;55.694;37.494;2024-03-08T00:58:30;6.63;;;2.85;;
74213;SDS011;62576;55.694;37.494;2024-03-08T01:01:02;7.45;;;3.08;;
74213;SDS011;62576;55.694;37.494;2024-03-08T01:03:32;9.80;;;3.13;;
74213;SDS011;62576;55.694;37.494;2024-03-08T01:06:03;11.23;;;3.90;;
74213;SDS011;62576;55.694;37.494;2024-03-08T01:08:33;8.18;;;2.97;;
74213;SDS011;62576;55.694;37.494;2024-03-08T01:11:03;10.02;;;3.97;;
74213;SDS011;62576;55.694;37.494;2024-03-08T01:13:34;10.50;;;3.60;;
74213;SDS011;62576;55.694;37.494;2024-03-08T01:16:06;9.05;;;3.20;;
74213;SDS011;62576;55.694;37.494;2024-03-08T01:18:36;8.52;;;3.13;;
74213;SDS011;62576;55.694;37.494;2024-03-08T01:21:06;13.45;;;4.50;;
74213;SDS011;62576;55.694;37.494;2024-03-08T01:23:36;7.47;;;4.35;;
74213;SDS011;62576;55.694;37.494;2024-03-08T01:26:09;8.40;;;3.78;;
74213;SDS011;62576;55.694;37.494;2024-03-08T01:28:39;11.02;;;5.28;;
74213;SDS011;62576;55.694;37.494;2024-03-08T01:31:11;9.13;;;4.00;;
74213;SDS011;62576;55.694;37.494;2024-03-08T01:33:41;10.40;;;4.20;;
74213;SDS011;62576;55.694;37.494;2024-03-08T01:36:12;10.45;;;4.32;;
74213;SDS011;62576;55.694;37.494;2024-03-08T01:38:43;10.35;;;4.07;;
74213;SDS011;62576;55.694;37.494;2024-03-08T01:41:15;9.98;;;3.72;;
74213;SDS011;62576;55.694;37.494;2024-03-08T01:43:46;8.10;;;3.03;;
74213;SDS011;62576;55.694;37.494;2024-03-08T01:46:17;10.05;;;4.68;;
74213;SDS011;62576;55.694;37.494;2024-03-08T01:48:51;10.13;;;4.53;;
74213;SDS011;62576;55.694;37.494;2024-03-08T01:51:21;7.63;;;3.30;;
74213;SDS011;62576;55.694;37.494;2024-03-08T01:53:51;9.35;;;4.05;;
74213;SDS011;62576;55.694;37.494;2024-03-08T01:56:22;9.73;;;3.33;;
74213;SDS011;62576;55.694;37.494;2024-03-08T01:58:53;7.88;;;3.30;;
74213;SDS011;62576;55.694;37.494;2024-03-08T02:01:25;9.02;;;4.05;;
74213;SDS011;62576;55.694;37.494;2024-03-08T02:03:57;9.85;;;4.38;;
74213;SDS011;62576;55.694;37.494;2024-03-08T02:06:27;8.68;;;3.70;;
74213;SDS011;62576;55.694;37.494;2024-03-08T02:08:57;9.65;;;4.90;;
74213;SDS011;62576;55.694;37.494;2024-03-08T02:11:25;9.40;;;3.28;;
74213;SDS011;62576;55.694;37.494;2024-03-08T02:13:55;11.65;;;4.60;;
74213;SDS011;62576;55.694;37.494;2024-03-08T02:16:27;8.43;;;3.20;;
74213;SDS011;62576;55.694;37.494;2024-03-08T02:19:00;8.82;;;3.20;;
74213;SDS011;62576;55.694;37.494;2024-03-08T02:21:32;8.35;;;2.90;;
74213;SDS011;62576;55.694;37.494;2024-03-08T02:24:03;8.95;;;3.88;;
74213;SDS011;62576;55.694;37.494;2024-03-08T02:26:34;10.45;;;4.82;;
74213;SDS011;62576;55.694;37.494;2024-03-08T02:29:04;8.13;;;2.97;;
74213;SDS011;62576;55.694;37.494;2024-03-08T02:31:34;7.97;;;3.60;;
74213;SDS011;62576;55.694;37.494;2024-03-08T02:34:01;9.73;;;3.90;;
74213;SDS011;62576;55.694;37.494;2024-03-08T02:36:34;8.88;;;3.80;;
74213;SDS011;62576;55.694;37.494;2024-03-08T02:39:04;12.15;;;5.88;;
74213;SDS011;62576;55.694;37.494;2024-03-08T02:41:35;8.43;;;3.78;;
74213;SDS011;62576;55.694;37.494;2024-03-08T02:44:05;8.88;;;3.40;;
74213;SDS011;62576;55.694;37.494;2024-03-08T02:46:35;8.13;;;3.97;;
74213;SDS011;62576;55.694;37.494;2024-03-08T02:49:05;8.93;;;3.13;;
74213;SDS011;62576;55.694;37.494;2024-03-08T02:51:37;9.70;;;4.35;;
74213;SDS011;62576;55.694;37.494;2024-03-08T02:54:08;13.05;;;5.10;;
74213;SDS011;62576;55.694;37.494;2024-03-08T02:56:41;7.90;;;3.13;;
74213;SDS011;62576;55.694;37.494;2024-03-08T02:59:12;9.88;;;4.68;;
74213;SDS011;62576;55.694;37.494;2024-03-08T03:01:41;8.02;;;4.22;;
74213;SDS011;62576;55.694;37.494;2024-03-08T03:04:11;11.02;;;4.07;;
74213;SDS011;62576;55.694;37.494;2024-03-08T03:06:43;7.68;;;3.58;;
74213;SDS011;62576;55.694;37.494;2024-03-08T03:09:14;8.52;;;4.18;;
74213;SDS011;62576;55.694;37.494;2024-03-08T03:11:45;7.30;;;3.17;;
74213;SDS011;62576;55.694;37.494;2024-03-08T03:14:16;10.50;;;4.95;;
74213;SDS011;62576;55.694;37.494;2024-03-08T03:16:46;9.50;;;3.70;;
74213;SDS011;62576;55.694;37.494;2024-03-08T03:19:16;8.82;;;3.38;;
74213;SDS011;62576;55.694;37.494;2024-03-08T03:21:48;8.57;;;3.30;;
74213;SDS011;62576;55.694;37.494;2024-03-08T03:24:18;10.70;;;4.80;;
74213;SDS011;62576;55.694;37.494;2024-03-08T03:26:49;11.15;;;4.72;;
74213;SDS011;62576;55.694;37.494;2024-03-08T03:29:20;9.63;;;5.22;;
74213;SDS011;62576;55.694;37.494;2024-03-08T03:31:50;9.18;;;3.97;;
74213;SDS011;62576;55.694;37.494;2024-03-08T03:34:20;10.68;;;4.00;;
74213;SDS011;62576;55.694;37.494;2024-03-08T03:36:52;11.65;;;4.85;;
74213;SDS011;62576;55.694;37.494;2024-03-08T03:39:24;9.38;;;3.42;;
74213;SDS011;62576;55.694;37.494;2024-03-08T03:41:54;13.02;;;6.03;;
74213;SDS011;62576;55.694;37.494;2024-03-08T03:44:24;11.68;;;4.75;;
74213;SDS011;62576;55.694;37.494;2024-03-08T03:46:55;11.68;;;4.10;;
74213;SDS011;62576;55.694;37.494;2024-03-08T03:49:25;11.50;;;4.97;;
74213;SDS011;62576;55.694;37.494;2024-03-08T03:51:57;11.13;;;4.70;;
74213;SDS011;62576;55.694;37.494;2024-03-08T03:54:28;14.77;;;5.15;;
74213;SDS011;62576;55.694;37.494;2024-03-08T03:56:59;9.13;;;3.35;;
74213;SDS011;62576;55.694;37.494;2024-03-08T03:59:28;8.65;;;3.83;;
74213;SDS011;62576;55.694;37.494;2024-03-08T04:01:59;8.45;;;3.58;;
74213;SDS011;62576;55.694;37.494;2024-03-08T04:04:29;17.00;;;5.38;;
74213;SDS011;62576;55.694;37.494;2024-03-08T04:07:01;9.77;;;4.47;;
74213;SDS011;62576;55.694;37.494;2024-03-08T04:09:31;12.27;;;3.80;;
74213;SDS011;62576;55.694;37.494;2024-03-08T04:12:04;10.15;;;4.30;;
74213;SDS011;62576;55.694;37.494;2024-03-08T04:14:35;10.18;;;4.60;;
74213;SDS011;62576;55.694;37.494;2024-03-08T04:17:05;8.07;;;3.28;;
74213;SDS011;62576;55.694;37.494;2024-03-08T04:19:37;11.95;;;6.28;;
74213;SDS011;62576;55.694;37.494;2024-03-08T04:22:09;8.73;;;3.45;;
74213;SDS011;62576;55.694;37.494;2024-03-08T04:24:40;8.73;;;3.47;;
74213;SDS011;62576;55.694;37.494;2024-03-08T04:27:10;10.27;;;4.45;;
74213;SDS011;62576;55.694;37.494;2024-03-08T04:29:40;11.77;;;5.57;;
74213;SDS011;62576;55.694;37.494;2024-03-08T04:32:10;9.55;;;5.30;;
74213;SDS011;62576;55.694;37.494;2024-03-08T04:34:41;9.50;;;4.07;;
74213;SDS011;62576;55.694;37.494;2024-03-08T04:37:14;11.57;;;5.10;;
74213;SDS011;62576;55.694;37.494;2024-03-08T04:39:46;11.07;;;5.20;;
74213;SDS011;62576;55.694;37.494;2024-03-08T04:42:16;12.85;;;5.22;;
74213;SDS011;62576;55.694;37.494;2024-03-08T04:44:47;8.35;;;3.72;;
74213;SDS011;62576;55.694;37.494;2024-03-08T04:47:17;11.60;;;4.60;;
74213;SDS011;62576;55.694;37.494;2024-03-08T04:49:48;10.70;;;4.88;;
74213;SDS011;62576;55.694;37.494;2024-03-08T04:52:20;10.73;;;3.90;;
74213;SDS011;62576;55.694;37.494;2024-03-08T04:54:51;10.95;;;5.43;;
74213;SDS011;62576;55.694;37.494;2024-03-08T04:57:21;10.95;;;4.22;;
74213;SDS011;62576;55.694;37.494;2024-03-08T04:59:52;12.23;;;3.88;;
74213;SDS011;62576;55.694;37.494;2024-03-08T05:02:22;13.32;;;5.97;;
74213;SDS011;62576;55.694;37.494;2024-03-08T05:04:52;11.30;;;3.88;;
74213;SDS011;62576;55.694;37.494;2024-03-08T05:07:25;12.98;;;4.60;;
74213;SDS011;62576;55.694;37.494;2024-03-08T05:09:55;14.38;;;6.60;;
74213;SDS011;62576;55.694;37.494;2024-03-08T05:12:25;14.35;;;5.60;;
74213;SDS011;62576;55.694;37.494;2024-03-08T05:14:56;13.57;;;6.60;;
74213;SDS011;62576;55.694;37.494;2024-03-08T05:17:26;12.85;;;3.90;;
74213;SDS011;62576;55.694;37.494;2024-03-08T05:19:58;12.07;;;4.80;;
74213;SDS011;62576;55.694;37.494;2024-03-08T05:22:30;12.85;;;4.68;;
74213;SDS011;62576;55.694;37.494;2024-03-08T05:25:00;11.43;;;4.80;;
74213;SDS011;62576;55.694;37.494;2024-03-08T05:27:30;14.40;;;7.15;;
74213;SDS011;62576;55.694;37.494;2024-03-08T05:30:01;12.10;;;4.40;;
74213;SDS011;62576;55.694;37.494;2024-03-08T05:32:32;12.27;;;6.28;;
74213;SDS011;62576;55.694;37.494;2024-03-08T05:35:02;11.95;;;4.15;;
74213;SDS011;62576;55.694;37.494;2024-03-08T05:37:36;10.18;;;4.22;;
74213;SDS011;62576;55.694;37.494;2024-03-08T05:40:07;12.20;;;4.30;;
74213;SDS011;62576;55.694;37.494;2024-03-08T05:42:38;12.50;;;4.55;;
74213;SDS011;62576;55.694;37.494;2024-03-08T05:45:09;14.27;;;5.00;;
74213;SDS011;62576;55.694;37.494;2024-03-08T05:47:39;12.38;;;4.63;;
74213;SDS011;62576;55.694;37.494;2024-03-08T05:50:10;12.85;;;4.75;;
74213;SDS011;62576;55.694;37.494;2024-03-08T05:52:42;14.43;;;5.03;;
74213;SDS011;62576;55.694;37.494;2024-03-08T05:55:12;16.15;;;6.10;;
74213;SDS011;62576;55.694;37.494;2024-03-08T05:57:44;12.57;;;5.22;;
74213;SDS011;62576;55.694;37.494;2024-03-08T06:00:14;11.27;;;4.68;;
74213;SDS011;62576;55.694;37.494;2024-03-08T06:02:52;13.00;;;5.78;;
74213;SDS011;62576;55.694;37.494;2024-03-08T06:05:24;13.30;;;5.57;;
74213;SDS011;62576;55.694;37.494;2024-03-08T06:07:56;10.27;;;4.20;;
74213;SDS011;62576;55.694;37.494;2024-03-08T06:10:26;18.13;;;8.52;;
74213;SDS011;62576;55.694;37.494;2024-03-08T06:12:56;17.58;;;6.30;;
74213;SDS011;62576;55.694;37.494;2024-03-08T06:15:27;13.07;;;4.72;;
74213;SDS011;62576;55.694;37.494;2024-03-08T06:17:59;14.35;;;6.50;;
74213;SDS011;62576;55.694;37.494;2024-03-08T06:20:30;16.13;;;5.35;;
74213;SDS011;62576;55.694;37.494;2024-03-08T06:23:02;15.57;;;6.93;;
74213;SDS011;62576;55.694;37.494;2024-03-08T06:25:33;12.57;;;5.35;;
74213;SDS011;62576;55.694;37.494;2024-03-08T06:28:03;15.32;;;6.65;;
74213;SDS011;62576;55.694;37.494;2024-03-08T06:30:34;14.65;;;6.47;;
74213;SDS011;62576;55.694;37.494;2024-03-08T06:33:05;13.00;;;5.35;;
74213;SDS011;62576;55.694;37.494;2024-03-08T06:35:35;13.95;;;5.43;;
74213;SDS011;62576;55.694;37.494;2024-03-08T06:38:08;13.57;;;6.00;;
74213;SDS011;62576;55.694;37.494;2024-03-08T06:40:39;13.63;;;6.00;;
74213;SDS011;62576;55.694;37.494;2024-03-08T06:43:10;12.00;;;4.35;;
74213;SDS011;62576;55.694;37.494;2024-03-08T06:45:44;13.80;;;5.63;;
74213;SDS011;62576;55.694;37.494;2024-03-08T06:48:16;16.30;;;5.60;;
74213;SDS011;62576;55.694;37.494;2024-03-08T06:50:47;12.13;;;5.57;;
74213;SDS011;62576;55.694;37.494;2024-03-08T06:53:19;15.60;;;6.18;;
74213;SDS011;62576;55.694;37.494;2024-03-08T06:55:50;11.32;;;4.15;;
74213;SDS011;62576;55.694;37.494;2024-03-08T06:58:20;16.58;;;6.20;;
74213;SDS011;62576;55.694;37.494;2024-03-08T07:00:51;14.02;;;5.75;;
74213;SDS011;62576;55.694;37.494;2024-03-08T07:03:21;13.82;;;5.95;;
74213;SDS011;62576;55.694;37.494;2024-03-08T07:05:51;11.73;;;4.97;;
74213;SDS011;62576;55.694;37.494;2024-03-08T07:08:24;12.75;;;6.53;;
74213;SDS011;62576;55.694;37.494;2024-03-08T07:10:52;11.82;;;5.78;;
74213;SDS011;62576;55.694;37.494;2024-03-08T07:13:22;13.75;;;6.65;;
74213;SDS011;62576;55.694;37.494;2024-03-08T07:15:53;13.00;;;6.43;;
74213;SDS011;62576;55.694;37.494;2024-03-08T07:18:23;13.52;;;6.18;;
74213;SDS011;62576;55.694;37.494;2024-03-08T07:20:53;13.32;;;5.07;;
74213;SDS011;62576;55.694;37.494;2024-03-08T07:23:25;12.18;;;6.22;;
74213;SDS011;62576;55.694;37.494;2024-03-08T07:26:10;14.13;;;6.93;;
74213;SDS011;62576;55.694;37.494;2024-03-08T07:28:40;12.68;;;4.63;;
74213;SDS011;62576;55.694;37.494;2024-03-08T07:31:10;11.32;;;4.80;;
74213;SDS011;62576;55.694;37.494;2024-03-08T07:33:49;13.82;;;6.32;;
74213;SDS011;62576;55.694;37.494;2024-03-08T07:36:21;11.15;;;4.13;;
74213;SDS011;62576;55.694;37.494;2024-03-08T07:38:53;15.38;;;8.27;;
74213;SDS011;62576;55.694;37.494;2024-03-08T07:41:23;12.50;;;4.03;;
74213;SDS011;62576;55.694;37.494;2024-03-08T07:43:54;13.77;;;5.15;;
74213;SDS011;62576;55.694;37.494;2024-03-08T07:46:24;13.20;;;4.75;;
74213;SDS011;62576;55.694;37.494;2024-03-08T07:48:54;11.98;;;5.00;;
74213;SDS011;62576;55.694;37.494;2024-03-08T07:51:25;12.98;;;6.10;;
74213;SDS011;62576;55.694;37.494;2024-03-08T07:53:56;15.20;;;6.18;;
74213;SDS011;62576;55.694;37.494;2024-03-08T07:56:28;11.75;;;5.10;;
74213;SDS011;62576;55.694;37.494;2024-03-08T07:58:59;15.63;;;5.25;;
74213;SDS011;62576;55.694;37.494;2024-03-08T08:01:32;11.82;;;4.32;;
74213;SDS011;62576;55.694;37.494;2024-03-08T08:04:03;12.52;;;5.03;;
74213;SDS011;62576;55.694;37.494;2024-03-08T08:06:33;15.55;;;7.55;;
74213;SDS011;62576;55.694;37.494;2024-03-08T08:09:06;13.27;;;4.63;;
74213;SDS011;62576;55.694;37.494;2024-03-08T08:11:39;15.65;;;7.30;;
74213;SDS011;62576;55.694;37.494;2024-03-08T08:14:11;15.98;;;6.18;;
74213;SDS011;62576;55.694;37.494;2024-03-08T08:16:42;13.75;;;5.72;;
74213;SDS011;62576;55.694;37.494;2024-03-08T08:19:14;14.13;;;5.78;;
74213;SDS011;62576;55.694;37.494;2024-03-08T08:21:44;13.10;;;6.15;;
74213;SDS011;62576;55.694;37.494;2024-03-08T08:24:17;13.05;;;4.28;;
74213;SDS011;62576;55.694;37.494;2024-03-08T08:26:48;13.88;;;5.78;;
74213;SDS011;62576;55.694;37.494;2024-03-08T08:29:19;12.52;;;6.20;;
74213;SDS011;62576;55.694;37.494;2024-03-08T08:31:49;14.73;;;6.72;;
74213;SDS011;62576;55.694;37.494;2024-03-08T08:34:19;15.50;;;6.68;;
74213;SDS011;62576;55.694;37.494;2024-03-08T08:36:51;15.27;;;8.20;;
74213;SDS011;62576;55.694;37.494;2024-03-08T08:39:24;20.02;;;7.00;;
74213;SDS011;62576;55.694;37.494;2024-03-08T08:41:54;17.83;;;8.43;;
74213;SDS011;62576;55.694;37.494;2024-03-08T08:44:24;15.50;;;6.90;;
74213;SDS011;62576;55.694;37.494;2024-03-08T08:46:55;10.90;;;5.10;;
74213;SDS011;62576;55.694;37.494;2024-03-08T08:49:26;16.00;;;5.30;;
74213;SDS011;62576;55.694;37.494;2024-03-08T08:51:57;14.15;;;6.40;;
74213;SDS011;62576;55.694;37.494;2024-03-08T08:54:29;13.68;;;5.50;;
74213;SDS011;62576;55.694;37.494;2024-03-08T08:57:00;11.10;;;4.60;;
74213;SDS011;62576;55.694;37.494;2024-03-08T08:59:36;15.40;;;7.03;;
74213;SDS011;62576;55.694;37.494;2024-03-08T09:02:07;14.60;;;6.70;;
74213;SDS011;62576;55.694;37.494;2024-03-08T09:04:38;13.80;;;5.85;;
74213;SDS011;62576;55.694;37.494;2024-03-08T09:07:08;15.48;;;7.05;;
74213;SDS011;62576;55.694;37.494;2024-03-08T09:09:40;13.82;;;5.97;;
74213;SDS011;62576;55.694;37.494;2024-03-08T09:12:11;13.20;;;5.03;;
74213;SDS011;62576;55.694;37.494;2024-03-08T09:14:42;15.68;;;8.15;;
74213;SDS011;62576;55.694;37.494;2024-03-08T09:17:12;14.07;;;5.45;;
74213;SDS011;62576;55.694;37.494;2024-03-08T09:19:45;14.18;;;5.38;;
74213;SDS011;62576;55.694;37.494;2024-03-08T09:22:16;14.68;;;6.32;;
74213;SDS011;62576;55.694;37.494;2024-03-08T09:24:48;16.17;;;7.07;;
74213;SDS011;62576;55.694;37.494;2024-03-08T09:27:23;12.50;;;5.03;;
74213;SDS011;62576;55.694;37.494;2024-03-08T09:29:53;14.98;;;7.22;;
74213;SDS011;62576;55.694;37.494;2024-03-08T09:32:29;16.23;;;7.70;;
74213;SDS011;62576;55.694;37.494;2024-03-08T09:34:59;18.45;;;7.75;;
74213;SDS011;62576;55.694;37.494;2024-03-08T09:37:30;14.70;;;6.57;;
74213;SDS011;62576;55.694;37.494;2024-03-08T09:40:04;14.70;;;6.18;;
74213;SDS011;62576;55.694;37.494;2024-03-08T09:42:37;16.13;;;6.88;;
74213;SDS011;62576;55.694;37.494;2024-03-08T09:45:09;16.08;;;8.27;;
74213;SDS011;62576;55.694;37.494;2024-03-08T09:47:45;17.15;;;6.32;;
74213;SDS011;62576;55.694;37.494;2024-03-08T09:50:17;15.98;;;6.20;;
74213;SDS011;62576;55.694;37.494;2024-03-08T09:52:47;18.52;;;8.00;;
74213;SDS011;62576;55.694;37.494;2024-03-08T09:55:17;17.02;;;8.65;;
74213;SDS011;62576;55.694;37.494;2024-03-08T09:57:51;15.15;;;5.78;;
74213;SDS011;62576;55.694;37.494;2024-03-08T10:00:47;14.48;;;6.90;;
74213;SDS011;62576;55.694;37.494;2024-03-08T10:03:36;18.23;;;6.38;;
74213;SDS011;62576;55.694;37.494;2024-03-08T10:06:06;17.33;;;8.35;;
74213;SDS011;62576;55.694;37.494;2024-03-08T10:08:40;16.20;;;7.15;;
74213;SDS011;62576;55.694;37.494;2024-03-08T10:11:13;14.70;;;5.53;;
74213;SDS011;62576;55.694;37.494;2024-03-08T10:16:25;15.73;;;6.53;;
74213;SDS011;62576;55.694;37.494;2024-03-08T10:19:03;14.80;;;6.80;;
74213;SDS011;62576;55.694;37.494;2024-03-08T10:21:59;14.40;;;6.05;;
74213;SDS011;62576;55.694;37.494;2024-03-08T10:27:05;15.07;;;5.57;;
74213;SDS011;62576;55.694;37.494;2024-03-08T10:29:36;13.88;;;5.70;;
74213;SDS011;62576;55.694;37.494;2024-03-08T10:32:13;14.07;;;5.97;;
74213;SDS011;62576;55.694;37.494;2024-03-08T10:34:46;14.67;;;6.33;;
74213;SDS011;62576;55.694;37.494;2024-03-08T10:37:21;14.35;;;5.47;;
74213;SDS011;62576;55.694;37.494;2024-03-08T10:39:55;14.43;;;5.82;;
74213;SDS011;62576;55.694;37.494;2024-03-08T10:42:40;17.60;;;7.00;;
74213;SDS011;62576;55.694;37.494;2024-03-08T10:45:19;19.27;;;5.85;;
74213;SDS011;62576;55.694;37.494;2024-03-08T10:48:17;14.00;;;6.60;;
74213;SDS011;62576;55.694;37.494;2024-03-08T10:51:00;15.07;;;5.97;;
74213;SDS011;62576;55.694;37.494;2024-03-08T10:53:42;14.35;;;7.88;;
74213;SDS011;62576;55.694;37.494;2024-03-08T10:56:15;13.73;;;6.68;;
74213;SDS011;62576;55.694;37.494;2024-03-08T10:58:49;13.45;;;5.47;;
74213;SDS011;62576;55.694;37.494;2024-03-08T11:01:22;13.10;;;5.43;;
74213;SDS011;62576;55.694;37.494;2024-03-08T11:03:54;12.00;;;5.18;;
74213;SDS011;62576;55.694;37.494;2024-03-08T11:06:29;13.55;;;5.05;;
74213;SDS011;62576;55.694;37.494;2024-03-08T11:15:01;14.33;;;5.60;;
74213;SDS011;62576;55.694;37.494;2024-03-08T11:17:47;15.00;;;5.88;;
74213;SDS011;62576;55.694;37.494;2024-03-08T11:23:17;13.38;;;5.20;;
74213;SDS011;62576;55.694;37.494;2024-03-08T11:25:55;15.05;;;5.95;;
74213;SDS011;62576;55.694;37.494;2024-03-08T11:28:28;16.77;;;7.43;;
74213;SDS011;62576;55.694;37.494;2024-03-08T11:33:56;15.75;;;7.78;;
74213;SDS011;62576;55.694;37.494;2024-03-08T11:36:27;15.02;;;7.07;;
74213;SDS011;62576;55.694;37.494;2024-03-08T11:39:00;14.70;;;7.53;;
74213;SDS011;62576;55.694;37.494;2024-03-08T11:41:37;14.10;;;6.78;;
74213;SDS011;62576;55.694;37.494;2024-03-08T11:44:09;12.48;;;5.65;;
74213;SDS011;62576;55.694;37.494;2024-03-08T11:46:45;14.43;;;5.68;;
74213;SDS011;62576;55.694;37.494;2024-03-08T11:49:15;13.60;;;5.85;;
74213;SDS011;62576;55.694;37.494;2024-03-08T11:51:46;13.50;;;6.30;;
74213;SDS011;62576;55.694;37.494;2024-03-08T11:54:16;12.60;;;4.93;;
74213;SDS011;62576;55.694;37.494;2024-03-08T11:56:47;11.82;;;4.68;;
74213;SDS011;62576;55.694;37.494;2024-03-08T11:59:17;13.05;;;5.90;;
74213;SDS011;62576;55.694;37.494;2024-03-08T12:02:02;13.27;;;7.13;;
74213;SDS011;62576;55.694;37.494;2024-03-08T12:04:55;15.00;;;6.00;;
74213;SDS011;62576;55.694;37.494;2024-03-08T12:07:28;12.38;;;5.30;;
74213;SDS011;62576;55.694;37.494;2024-03-08T12:10:16;14.80;;;5.88;;
74213;SDS011;62576;55.694;37.494;2024-03-08T12:12:50;18.80;;;8.30;;
74213;SDS011;62576;55.694;37.494;2024-03-08T12:15:21;13.98;;;7.25;;
74213;SDS011;62576;55.694;37.494;2024-03-08T12:18:13;19.30;;;7.00;;
74213;SDS011;62576;55.694;37.494;2024-03-08T12:20:44;16.88;;;7.60;;
74213;SDS011;62576;55.694;37.494;2024-03-08T12:23:41;16.38;;;7.82;;
74213;SDS011;62576;55.694;37.494;2024-03-08T12:26:16;20.60;;;7.78;;
74213;SDS011;62576;55.694;37.494;2024-03-08T12:31:23;14.40;;;6.43;;
74213;SDS011;62576;55.694;37.494;2024-03-08T12:33:57;19.60;;;8.93;;
74213;SDS011;62576;55.694;37.494;2024-03-08T12:36:31;17.67;;;7.25;;
74213;SDS011;62576;55.694;37.494;2024-03-08T12:39:05;14.43;;;5.80;;
74213;SDS011;62576;55.694;37.494;2024-03-08T12:41:40;16.67;;;8.07;;
74213;SDS011;62576;55.694;37.494;2024-03-08T12:44:11;14.38;;;6.72;;
74213;SDS011;62576;55.694;37.494;2024-03-08T12:46:43;12.85;;;6.07;;
74213;SDS011;62576;55.694;37.494;2024-03-08T12:49:19;14.07;;;5.72;;
74213;SDS011;62576;55.694;37.494;2024-03-08T12:51:52;14.07;;;5.90;;
74213;SDS011;62576;55.694;37.494;2024-03-08T12:54:23;14.98;;;6.25;;
74213;SDS011;62576;55.694;37.494;2024-03-08T12:56:53;12.43;;;7.28;;
74213;SDS011;62576;55.694;37.494;2024-03-08T12:59:23;13.25;;;7.45;;
74213;SDS011;62576;55.694;37.494;2024-03-08T13:01:54;14.80;;;6.90;;
74213;SDS011;62576;55.694;37.494;2024-03-08T13:04:29;12.05;;;5.97;;
74213;SDS011;62576;55.694;37.494;2024-03-08T13:07:00;13.63;;;4.97;;
74213;SDS011;62576;55.694;37.494;2024-03-08T13:09:30;15.18;;;4.90;;
74213;SDS011;62576;55.694;37.494;2024-03-08T13:12:06;13.00;;;6.68;;
74213;SDS011;62576;55.694;37.494;2024-03-08T13:14:40;10.70;;;4.70;;
74213;SDS011;62576;55.694;37.494;2024-03-08T13:17:15;11.60;;;5.05;;
74213;SDS011;62576;55.694;37.494;2024-03-08T13:19:47;10.38;;;5.70;;
74213;SDS011;62576;55.694;37.494;2024-03-08T13:22:18;13.90;;;4.10;;
74213;SDS011;62576;55.694;37.494;2024-03-08T13:24:50;9.20;;;4.10;;
74213;SDS011;62576;55.694;37.494;2024-03-08T13:27:22;10.27;;;4.32;;
74213;SDS011;62576;55.694;37.494;2024-03-08T13:29:53;10.77;;;4.28;;
74213;SDS011;62576;55.694;37.494;2024-03-08T13:32:24;10.52;;;4.55;;
74213;SDS011;62576;55.694;37.494;2024-03-08T13:34:56;11.82;;;4.82;;
74213;SDS011;62576;55.694;37.494;2024-03-08T13:37:26;10.50;;;3.97;;
74213;SDS011;62576;55.694;37.494;2024-03-08T13:39:57;12.77;;;6.20;;
74213;SDS011;62576;55.694;37.494;2024-03-08T13:42:28;11.52;;;5.10;;
74213;SDS011;62576;55.694;37.494;2024-03-08T13:44:59;11.30;;;4.75;;
74213;SDS011;62576;55.694;37.494;2024-03-08T13:47:30;12.93;;;5.10;;
74213;SDS011;62576;55.694;37.494;2024-03-08T13:50:03;12.77;;;5.35;;
74213;SDS011;62576;55.694;37.494;2024-03-08T13:52:36;11.55;;;5.85;;
74213;SDS011;62576;55.694;37.494;2024-03-08T13:55:07;12.90;;;5.38;;
74213;SDS011;62576;55.694;37.494;2024-03-08T13:57:40;10.38;;;4.97;;
74213;SDS011;62576;55.694;37.494;2024-03-08T14:03:32;11.77;;;5.03;;
74213;SDS011;62576;55.694;37.494;2024-03-08T14:06:04;11.63;;;4.93;;
74213;SDS011;62576;55.694;37.494;2024-03-08T14:08:35;8.85;;;3.80;;
74213;SDS011;62576;55.694;37.494;2024-03-08T14:11:03;11.23;;;5.45;;
74213;SDS011;62576;55.694;37.494;2024-03-08T14:13:40;9.38;;;5.10;;
74213;SDS011;62576;55.694;37.494;2024-03-08T14:16:13;9.07;;;4.07;;
74213;SDS011;62576;55.694;37.494;2024-03-08T14:18:43;9.68;;;4.93;;
74213;SDS011;62576;55.694;37.494;2024-03-08T14:21:15;9.52;;;4.50;;
74213;SDS011;62576;55.694;37.494;2024-03-08T14:24:06;13.65;;;5.70;;
74213;SDS011;62576;55.694;37.494;2024-03-08T14:26:37;10.80;;;5.10;;
74213;SDS011;62576;55.694;37.494;2024-03-08T14:29:07;11.23;;;3.72;;
74213;SDS011;62576;55.694;37.494;2024-03-08T14:31:39;11.02;;;4.00;;
74213;SDS011;62576;55.694;37.494;2024-03-08T14:34:11;10.82;;;4.40;;
74213;SDS011;62576;55.694;37.494;2024-03-08T14:36:44;11.38;;;4.18;;
74213;SDS011;62576;55.694;37.494;2024-03-08T14:39:14;9.43;;;4.03;;
74213;SDS011;62576;55.694;37.494;2024-03-08T14:41:49;8.32;;;4.38;;
74213;SDS011;62576;55.694;37.494;2024-03-08T14:44:22;9.07;;;4.60;;
74213;SDS011;62576;55.694;37.494;2024-03-08T14:46:54;10.93;;;4.10;;
74213;SDS011;62576;55.694;37.494;2024-03-08T14:49:25;9.88;;;4.22;;
74213;SDS011;62576;55.694;37.494;2024-03-08T14:51:58;11.35;;;3.40;;
74213;SDS011;62576;55.694;37.494;2024-03-08T14:54:29;10.90;;;4.50;;
74213;SDS011;62576;55.694;37.494;2024-03-08T14:56:59;9.02;;;5.10;;
74213;SDS011;62576;55.694;37.494;2024-03-08T14:59:31;9.13;;;4.45;;
74213;SDS011;62576;55.694;37.494;2024-03-08T15:01:58;8.77;;;3.60;;
74213;SDS011;62576;55.694;37.494;2024-03-08T15:04:29;9.60;;;4.00;;
74213;SDS011;62576;55.694;37.494;2024-03-08T15:07:04;8.15;;;3.40;;
74213;SDS011;62576;55.694;37.494;2024-03-08T15:09:35;8.90;;;3.88;;
74213;SDS011;62576;55.694;37.494;2024-03-08T15:12:09;11.18;;;4.18;;
74213;SDS011;62576;55.694;37.494;2024-03-08T15:14:39;9.23;;;4.03;;
74213;SDS011;62576;55.694;37.494;2024-03-08T15:20:33;10.73;;;3.53;;